createdAt,value
2018-08-04T00:01:45.197Z,42.68
2018-08-04T00:04:13.648Z,43.00
2018-08-04T00:06:41.925Z,43.09
2018-08-04T00:09:12.003Z,43.29
2018-08-04T00:11:40.470Z,43.11
2018-08-04T00:14:08.865Z,43.28
2018-08-04T00:16:40.273Z,43.30
2018-08-04T00:19:08.772Z,43.62
2018-08-04T00:21:37.590Z,43.66
2018-08-04T00:24:06.043Z,43.61
2018-08-04T00:26:34.743Z,44.02
2018-08-04T00:29:03.683Z,44.10
2018-08-04T00:31:33.276Z,43.87
2018-08-04T00:34:01.641Z,43.85
2018-08-04T00:36:29.918Z,44.20
2018-08-04T00:38:58.272Z,43.77
2018-08-04T00:41:26.630Z,43.96
2018-08-04T00:43:55.052Z,43.95
2018-08-04T00:46:23.363Z,43.82
2018-08-04T00:48:51.840Z,44.09
2018-08-04T00:51:20.581Z,43.93
2018-08-04T00:53:48.884Z,44.11
2018-08-04T00:56:17.297Z,44.40
2018-08-04T00:58:45.741Z,44.32
2018-08-04T01:01:14.018Z,44.36
2018-08-04T01:03:42.389Z,44.54
2018-08-04T01:06:10.747Z,44.59
2018-08-04T01:08:39.130Z,44.65
2018-08-04T01:11:07.664Z,44.63
2018-08-04T01:13:36.050Z,44.89
2018-08-04T01:16:04.475Z,45.02
2018-08-04T01:18:32.916Z,45.12
2018-08-04T01:21:01.291Z,45.69
2018-08-04T01:23:29.708Z,45.46
2018-08-04T01:25:58.054Z,44.30
2018-08-04T01:28:26.367Z,45.20
2018-08-04T01:30:54.888Z,45.47
2018-08-04T01:33:23.253Z,45.56
2018-08-04T01:35:51.620Z,45.92
2018-08-04T01:38:20.419Z,45.78
2018-08-04T01:40:48.733Z,45.67
2018-08-04T01:43:17.064Z,45.58
2018-08-04T01:45:45.389Z,46.15
2018-08-04T01:48:13.751Z,46.22
2018-08-04T01:50:42.159Z,46.27
2018-08-04T01:53:10.666Z,47.02
2018-08-04T01:55:38.994Z,46.99
2018-08-04T01:58:07.343Z,47.05
2018-08-04T02:00:35.950Z,47.81
2018-08-04T02:03:04.231Z,48.15
2018-08-04T02:05:32.498Z,47.60
2018-08-04T02:08:00.889Z,47.56
2018-08-04T02:10:29.195Z,47.81
2018-08-04T02:12:57.555Z,47.82
2018-08-04T02:15:25.892Z,47.63
2018-08-04T02:17:54.201Z,47.84
2018-08-04T02:20:22.467Z,47.84
2018-08-04T02:22:50.909Z,47.64
2018-08-04T02:25:19.457Z,47.82
2018-08-04T02:27:47.784Z,48.03
2018-08-04T02:30:16.205Z,47.92
2018-08-04T02:32:44.531Z,47.98
2018-08-04T02:35:13.063Z,47.79
2018-08-04T02:37:41.498Z,48.03
2018-08-04T02:40:09.813Z,47.42
2018-08-04T02:42:38.079Z,47.42
2018-08-04T02:45:07.372Z,47.70
2018-08-04T02:47:35.961Z,47.50
2018-08-04T02:50:04.703Z,47.43
2018-08-04T02:52:33.215Z,47.59
2018-08-04T02:55:01.564Z,47.67
2018-08-04T02:57:29.835Z,48.22
2018-08-04T02:59:58.162Z,47.80
2018-08-04T03:02:26.681Z,48.27
2018-08-04T03:04:55.134Z,48.10
2018-08-04T03:07:23.532Z,48.33
2018-08-04T03:09:51.858Z,48.35
2018-08-04T03:12:20.267Z,48.49
2018-08-04T03:14:48.555Z,48.37
2018-08-04T03:17:17.153Z,48.32
2018-08-04T03:19:45.479Z,48.28
2018-08-04T03:22:14.036Z,48.70
2018-08-04T03:24:42.772Z,48.76
2018-08-04T03:27:11.084Z,48.88
2018-08-04T03:29:39.410Z,48.53
2018-08-04T03:32:08.064Z,49.15
2018-08-04T03:34:36.447Z,49.26
2018-08-04T03:37:04.881Z,49.00
2018-08-04T03:39:33.227Z,49.06
2018-08-04T03:42:01.643Z,49.25
2018-08-04T03:44:30.150Z,49.12
2018-08-04T03:46:59.491Z,49.26
2018-08-04T03:49:27.914Z,49.55
2018-08-04T03:51:56.396Z,49.31
2018-08-04T03:54:25.493Z,49.28
2018-08-04T03:56:53.852Z,49.12
2018-08-04T03:59:22.192Z,48.81
2018-08-04T04:01:50.598Z,48.58
2018-08-04T04:04:18.900Z,48.67
2018-08-04T04:06:47.273Z,48.55
2018-08-04T04:09:15.628Z,48.71
2018-08-04T04:11:43.947Z,49.05
2018-08-04T04:14:12.300Z,49.09
2018-08-04T04:16:40.597Z,48.90
2018-08-04T04:19:08.879Z,48.73
2018-08-04T04:21:37.690Z,48.83
2018-08-04T04:24:05.980Z,48.71
2018-08-04T04:26:34.318Z,49.29
2018-08-04T04:29:03.073Z,48.86
2018-08-04T04:31:31.540Z,48.46
2018-08-04T04:34:00.079Z,48.35
2018-08-04T04:36:28.447Z,48.51
2018-08-04T04:38:56.790Z,48.63
2018-08-04T04:41:25.240Z,48.27
2018-08-04T04:43:53.523Z,48.21
2018-08-04T04:46:21.883Z,48.23
2018-08-04T04:48:50.209Z,48.25
2018-08-04T04:51:18.904Z,48.53
2018-08-04T04:53:47.179Z,48.67
2018-08-04T04:56:15.468Z,48.87
2018-08-04T04:58:43.934Z,47.80
2018-08-04T05:01:12.357Z,47.90
2018-08-04T05:03:40.707Z,47.48
2018-08-04T05:06:09.071Z,47.98
2018-08-04T05:08:37.489Z,47.44
2018-08-04T05:11:06.059Z,47.32
2018-08-04T05:13:34.406Z,47.38
2018-08-04T05:16:02.893Z,47.83
2018-08-04T05:18:31.383Z,48.10
2018-08-04T05:20:59.807Z,47.69
2018-08-04T05:23:28.144Z,47.66
2018-08-04T05:25:56.544Z,46.95
2018-08-04T05:28:24.867Z,46.51
2018-08-04T05:30:53.479Z,46.46
2018-08-04T05:33:21.834Z,46.24
2018-08-04T05:35:50.215Z,46.46
2018-08-04T05:38:18.768Z,46.59
2018-08-04T05:40:47.090Z,45.80
2018-08-04T05:43:15.407Z,45.48
2018-08-04T05:45:43.867Z,45.48
2018-08-04T05:48:12.287Z,45.15
2018-08-04T05:50:40.665Z,44.52
2018-08-04T05:53:09.124Z,44.49
2018-08-04T05:55:37.609Z,44.53
2018-08-04T05:58:06.896Z,45.28
2018-08-04T06:00:35.483Z,44.91
2018-08-04T06:03:04.883Z,44.31
2018-08-04T06:05:33.308Z,44.38
2018-08-04T06:08:01.824Z,44.04
2018-08-04T06:10:30.232Z,44.04
2018-08-04T06:12:59.501Z,42.98
2018-08-04T06:15:27.776Z,42.28
2018-08-04T06:17:56.192Z,41.82
2018-08-04T06:20:24.633Z,41.92
2018-08-04T06:22:53.074Z,41.27
2018-08-04T06:25:21.388Z,40.94
2018-08-04T06:27:49.834Z,41.24
2018-08-04T06:30:18.209Z,41.25
2018-08-04T06:32:46.531Z,40.72
2018-08-04T06:35:14.994Z,40.17
2018-08-04T06:37:43.320Z,40.54
2018-08-04T06:40:11.707Z,40.00
2018-08-04T06:42:40.071Z,40.23
2018-08-04T06:45:08.408Z,39.20
2018-08-04T06:47:36.765Z,38.98
2018-08-04T06:50:05.374Z,39.19
2018-08-04T06:52:33.686Z,38.75
2018-08-04T06:55:02.086Z,39.60
2018-08-04T06:57:30.436Z,39.11
2018-08-04T06:59:58.859Z,38.30
2018-08-04T07:02:27.181Z,39.14
2018-08-04T07:04:55.507Z,38.01
2018-08-04T07:07:23.834Z,38.07
2018-08-04T07:09:52.145Z,38.07
2018-08-04T07:12:20.526Z,37.71
2018-08-04T07:14:48.904Z,37.49
2018-08-04T07:17:17.236Z,36.86
2018-08-04T07:19:45.568Z,36.72
2018-08-04T07:22:13.839Z,36.25
2018-08-04T07:24:42.135Z,35.49
2018-08-04T07:27:10.413Z,36.15
2018-08-04T07:29:38.767Z,36.46
2018-08-04T07:32:07.039Z,35.82
2018-08-04T07:34:35.455Z,35.03
2018-08-04T07:37:03.786Z,35.49
2018-08-04T07:39:32.094Z,34.67
2018-08-04T07:42:00.459Z,34.45
2018-08-04T07:44:28.754Z,34.99
2018-08-04T07:46:57.100Z,34.08
2018-08-04T07:49:25.416Z,34.29
2018-08-04T07:51:53.804Z,33.87
2018-08-04T07:54:22.245Z,33.15
2018-08-04T07:56:50.610Z,34.10
2018-08-04T07:59:19.004Z,32.74
2018-08-04T08:01:47.315Z,32.41
2018-08-04T08:04:15.717Z,33.09
2018-08-04T08:06:44.198Z,31.93
2018-08-04T08:09:13.169Z,32.83
2018-08-04T08:11:41.719Z,32.52
2018-08-04T08:14:10.271Z,32.94
2018-08-04T08:16:39.298Z,31.48
2018-08-04T08:19:07.620Z,31.89
2018-08-04T08:21:35.904Z,31.85
2018-08-04T08:24:04.236Z,30.61
2018-08-04T08:26:32.564Z,30.71
2018-08-04T08:29:00.857Z,30.85
2018-08-04T08:31:29.475Z,29.93
2018-08-04T08:33:57.815Z,31.88
2018-08-04T08:36:26.124Z,31.60
2018-08-04T08:38:54.431Z,31.26
2018-08-04T08:41:22.799Z,30.93
2018-08-04T08:43:51.322Z,30.10
2018-08-04T08:46:19.752Z,30.70
2018-08-04T08:48:48.072Z,29.14
2018-08-04T08:51:16.434Z,28.52
2018-08-04T08:53:45.151Z,29.83
2018-08-04T08:56:13.447Z,28.42
2018-08-04T08:58:41.773Z,29.48
2018-08-04T09:01:10.085Z,28.24
2018-08-04T09:03:38.437Z,27.81
2018-08-04T09:06:06.758Z,28.11
2018-08-04T09:08:35.060Z,28.60
2018-08-04T09:11:03.364Z,28.65
2018-08-04T09:13:31.672Z,28.12
2018-08-04T09:16:00.001Z,28.95
2018-08-04T09:18:28.399Z,29.05
2018-08-04T09:20:56.829Z,27.97
2018-08-04T09:23:25.208Z,28.12
2018-08-04T09:25:53.486Z,28.88
2018-08-04T09:28:22.067Z,27.95
2018-08-04T09:30:50.421Z,28.76
2018-08-04T09:33:19.568Z,27.67
2018-08-04T09:35:47.995Z,27.50
2018-08-04T09:38:16.365Z,26.50
2018-08-04T09:40:44.737Z,26.58
2018-08-04T09:43:13.089Z,27.09
2018-08-04T09:45:41.524Z,27.63
2018-08-04T09:48:09.833Z,27.13
2018-08-04T09:50:38.206Z,26.15
2018-08-04T09:53:06.582Z,26.53
2018-08-04T09:55:35.105Z,26.31
2018-08-04T09:58:03.587Z,26.07
2018-08-04T10:00:37.202Z,25.87
2018-08-04T10:03:05.511Z,25.55
2018-08-04T10:05:33.883Z,26.46
2018-08-04T10:08:02.301Z,26.47
2018-08-04T10:10:30.617Z,25.99
2018-08-04T10:12:58.991Z,25.58
2018-08-04T10:15:27.381Z,24.89
2018-08-04T10:17:55.796Z,25.13
2018-08-04T10:20:24.165Z,25.48
2018-08-04T10:22:52.496Z,25.11
2018-08-04T10:25:20.811Z,24.65
2018-08-04T10:27:49.618Z,24.23
2018-08-04T10:30:17.969Z,24.33
2018-08-04T10:32:46.679Z,24.96
2018-08-04T10:35:15.029Z,24.08
2018-08-04T10:37:43.328Z,23.36
2018-08-04T10:40:11.726Z,23.04
2018-08-04T10:42:40.035Z,22.99
2018-08-04T10:45:08.467Z,22.06
2018-08-04T10:47:37.094Z,21.95
2018-08-04T10:50:05.937Z,21.82
2018-08-04T10:52:34.591Z,21.42
2018-08-04T10:55:02.871Z,22.48
2018-08-04T10:57:31.508Z,21.10
2018-08-04T10:59:59.921Z,20.20
2018-08-04T11:02:28.195Z,20.39
2018-08-04T11:04:56.589Z,21.49
2018-08-04T11:07:24.954Z,20.64
2018-08-04T11:09:53.339Z,20.79
2018-08-04T11:12:21.749Z,19.93
2018-08-04T11:14:50.317Z,16.60
2018-08-04T11:17:18.658Z,17.10
2018-08-04T11:19:47.136Z,16.39
2018-08-04T11:22:15.511Z,17.36
2018-08-04T11:24:43.801Z,17.33
2018-08-04T11:27:12.522Z,16.57
2018-08-04T11:29:40.914Z,17.19
2018-08-04T11:32:09.192Z,16.74
2018-08-04T11:34:38.020Z,15.21
2018-08-04T11:37:06.374Z,16.05
2018-08-04T11:39:34.691Z,16.26
2018-08-04T11:42:02.977Z,16.43
2018-08-04T11:44:31.322Z,15.91
2018-08-04T11:46:59.733Z,14.57
2018-08-04T11:49:28.052Z,16.32
2018-08-04T11:51:56.399Z,16.03
2018-08-04T11:54:24.649Z,15.48
2018-08-04T11:56:52.964Z,14.62
2018-08-04T11:59:21.247Z,15.73
2018-08-04T12:01:49.591Z,13.86
2018-08-04T12:04:18.083Z,13.42
2018-08-04T12:06:46.498Z,12.26
2018-08-04T12:09:14.806Z,12.11
2018-08-04T12:11:43.428Z,11.72
2018-08-04T12:14:11.863Z,12.95
2018-08-04T12:16:40.147Z,11.64
2018-08-04T12:19:08.422Z,11.21
2018-08-04T12:21:36.733Z,9.45
2018-08-04T12:24:05.090Z,9.46
2018-08-04T12:26:33.382Z,7.80
2018-08-04T12:29:01.709Z,7.41
2018-08-04T12:31:30.102Z,7.46
2018-08-04T12:33:58.505Z,7.40
2018-08-04T12:36:27.676Z,7.80
2018-08-04T12:38:55.953Z,8.22
2018-08-04T12:41:24.297Z,8.59
2018-08-04T12:43:52.600Z,7.36
2018-08-04T12:46:20.939Z,8.26
2018-08-04T12:48:49.253Z,8.26
2018-08-04T12:51:17.569Z,7.23
2018-08-04T12:53:45.812Z,6.36
2018-08-04T12:56:14.163Z,6.97
2018-08-04T12:58:42.506Z,5.82
2018-08-04T13:01:10.754Z,6.07
2018-08-04T13:03:39.740Z,5.45
2018-08-04T13:06:08.045Z,5.09
2018-08-04T13:08:36.454Z,4.93
2018-08-04T13:11:04.691Z,5.25
2018-08-04T13:13:33.006Z,5.92
2018-08-04T13:16:01.300Z,5.34
2018-08-04T13:18:29.632Z,5.89
2018-08-04T13:20:57.952Z,5.37
2018-08-04T13:23:26.280Z,6.15
2018-08-04T13:25:54.595Z,5.72
2018-08-04T13:28:23.529Z,5.49
2018-08-04T13:30:52.796Z,4.38
2018-08-04T13:33:21.941Z,5.53
2018-08-04T13:35:50.918Z,6.05
2018-08-04T13:38:20.603Z,5.42
2018-08-04T13:40:48.932Z,6.65
2018-08-04T13:43:17.297Z,5.75
2018-08-04T13:45:45.705Z,4.79
2018-08-04T13:48:14.004Z,5.11
2018-08-04T13:50:42.407Z,4.38
2018-08-04T13:53:11.512Z,3.75
2018-08-04T13:55:40.477Z,5.42
2018-08-04T13:58:09.499Z,5.03
2018-08-04T14:00:38.631Z,8.08
2018-08-04T14:03:07.359Z,7.17
2018-08-04T14:05:36.385Z,7.05
2018-08-04T14:08:05.373Z,6.99
2018-08-04T14:10:34.443Z,6.16
2018-08-04T14:13:03.776Z,5.48
2018-08-04T14:15:32.672Z,4.82
2018-08-04T14:18:01.753Z,4.88
2018-08-04T14:20:30.427Z,4.91
2018-08-04T14:22:59.237Z,4.32
2018-08-04T14:25:28.294Z,4.52
2018-08-04T14:27:57.114Z,5.38
2018-08-04T14:30:26.204Z,5.57
2018-08-04T14:32:55.269Z,4.46
2018-08-04T14:35:24.280Z,4.00
2018-08-04T14:37:53.323Z,5.00
2018-08-04T14:40:23.168Z,6.04
2018-08-04T14:42:52.135Z,5.95
2018-08-04T14:45:20.926Z,5.89
2018-08-04T14:47:50.011Z,5.13
2018-08-04T14:50:19.079Z,5.26
2018-08-04T14:52:48.727Z,4.56
2018-08-04T14:55:17.687Z,4.50
2018-08-04T14:57:46.502Z,6.42
2018-08-04T15:00:15.906Z,6.41
2018-08-04T15:02:44.974Z,7.58
2018-08-04T15:05:14.453Z,7.30
2018-08-04T15:07:44.501Z,6.96
2018-08-04T15:10:13.807Z,7.98
2018-08-04T15:12:42.670Z,6.47
2018-08-04T15:15:11.538Z,6.19
2018-08-04T15:17:40.551Z,6.09
2018-08-04T15:20:09.772Z,5.03
2018-08-04T15:22:38.788Z,4.83
2018-08-04T15:25:08.339Z,5.36
2018-08-04T15:27:37.795Z,4.93
2018-08-04T15:30:07.691Z,5.52
2018-08-04T15:32:36.735Z,5.73
2018-08-04T15:35:05.913Z,5.46
2018-08-04T15:37:34.885Z,5.33
2018-08-04T15:40:03.632Z,5.03
2018-08-04T15:42:33.075Z,4.41
2018-08-04T15:45:02.203Z,4.12
2018-08-04T15:47:31.180Z,4.75
2018-08-04T15:50:00.083Z,6.22
2018-08-04T15:52:29.125Z,6.80
2018-08-04T15:54:57.894Z,6.59
2018-08-04T15:57:26.915Z,6.72
2018-08-04T15:59:55.754Z,6.01
2018-08-04T16:02:25.495Z,6.99
2018-08-04T16:04:54.173Z,7.62
2018-08-04T16:07:23.126Z,7.64
2018-08-04T16:09:52.122Z,7.74
2018-08-04T16:12:21.172Z,7.31
2018-08-04T16:14:50.287Z,8.58
2018-08-04T16:17:19.460Z,9.94
2018-08-04T16:19:48.823Z,9.14
2018-08-04T16:22:18.054Z,9.67
2018-08-04T16:24:47.351Z,8.51
2018-08-04T16:27:16.310Z,9.50
2018-08-04T16:29:45.353Z,8.73
2018-08-04T16:32:14.362Z,8.76
2018-08-04T16:34:43.400Z,9.06
2018-08-04T16:37:12.204Z,9.95
2018-08-04T16:39:41.009Z,8.89
2018-08-04T16:42:10.180Z,9.55
2018-08-04T16:44:39.426Z,10.10
2018-08-04T16:47:08.271Z,9.56
2018-08-04T16:49:37.106Z,9.10
2018-08-04T16:52:06.200Z,9.50
2018-08-04T16:54:35.211Z,8.93
2018-08-04T16:57:04.092Z,8.30
2018-08-04T16:59:33.043Z,9.06
2018-08-04T17:02:02.072Z,9.32
2018-08-04T17:04:31.291Z,9.17
2018-08-04T17:07:00.455Z,9.41
2018-08-04T17:09:29.143Z,9.14
2018-08-04T17:11:58.617Z,8.58
2018-08-04T17:14:28.436Z,10.24
2018-08-04T17:16:57.298Z,8.80
2018-08-04T17:19:26.189Z,9.99
2018-08-04T17:21:55.169Z,9.31
2018-08-04T17:24:24.072Z,9.65
2018-08-04T17:26:53.069Z,9.76
2018-08-04T17:29:22.385Z,9.12
2018-08-04T17:31:51.407Z,9.83
2018-08-04T17:34:20.980Z,10.48
2018-08-04T17:36:49.856Z,10.37
2018-08-04T17:39:19.807Z,11.05
2018-08-04T17:41:49.142Z,11.55
2018-08-04T17:44:18.683Z,12.14
2018-08-04T17:46:47.795Z,13.15
2018-08-04T17:49:16.964Z,15.01
2018-08-04T17:51:46.038Z,15.76
2018-08-04T17:54:15.461Z,15.71
2018-08-04T17:56:45.029Z,16.02
2018-08-04T17:59:13.996Z,17.27
2018-08-04T18:01:43.092Z,17.27
2018-08-04T18:04:11.830Z,17.28
2018-08-04T18:06:40.689Z,17.79
2018-08-04T18:09:10.890Z,18.19
2018-08-04T18:11:40.656Z,18.45
2018-08-04T18:14:09.768Z,18.49
2018-08-04T18:16:38.687Z,19.11
2018-08-04T18:19:07.911Z,20.16
2018-08-04T18:21:36.933Z,20.74
2018-08-04T18:24:06.089Z,21.21
2018-08-04T18:26:35.104Z,22.08
2018-08-04T18:29:03.961Z,22.58
2018-08-04T18:31:32.809Z,22.82
2018-08-04T18:34:01.919Z,23.30
2018-08-04T18:36:30.624Z,23.99
2018-08-04T18:39:00.208Z,23.52
2018-08-04T18:41:29.188Z,24.23
2018-08-04T18:43:58.975Z,24.48
2018-08-04T18:46:28.004Z,24.92
2018-08-04T18:48:56.894Z,25.68
2018-08-04T18:51:25.793Z,25.72
2018-08-04T18:53:54.868Z,25.64
2018-08-04T18:56:25.567Z,26.48
2018-08-04T18:58:54.559Z,25.54
2018-08-04T19:01:24.370Z,26.08
2018-08-04T19:03:53.841Z,26.01
2018-08-04T19:06:22.912Z,26.03
2018-08-04T19:08:51.758Z,26.73
2018-08-04T19:11:20.875Z,26.31
2018-08-04T19:13:49.619Z,26.31
2018-08-04T19:16:18.584Z,26.40
2018-08-04T19:18:47.469Z,26.49
2018-08-04T19:21:16.585Z,26.59
2018-08-04T19:23:45.503Z,27.11
2018-08-04T19:26:14.432Z,27.51
2018-08-04T19:28:43.477Z,26.86
2018-08-04T19:31:12.531Z,27.60
2018-08-04T19:33:41.740Z,27.14
2018-08-04T19:36:11.903Z,27.42
2018-08-04T19:38:41.027Z,27.60
2018-08-04T19:41:10.083Z,27.28
2018-08-04T19:43:39.182Z,27.09
2018-08-04T19:46:08.184Z,27.93
2018-08-04T19:48:38.308Z,28.05
2018-08-04T19:51:07.397Z,27.92
2018-08-04T19:53:36.219Z,28.16
2018-08-04T19:56:05.304Z,27.89
2018-08-04T19:58:34.510Z,27.61
2018-08-04T20:01:03.402Z,27.97
2018-08-04T20:03:32.837Z,27.40
2018-08-04T20:06:01.974Z,27.63
2018-08-04T20:08:31.394Z,27.77
2018-08-04T20:11:00.385Z,27.75
2018-08-04T20:13:29.512Z,28.25
2018-08-04T20:15:58.962Z,28.31
2018-08-04T20:18:28.195Z,27.91
2018-08-04T20:20:57.194Z,28.52
2018-08-04T20:23:27.570Z,29.73
2018-08-04T20:25:56.838Z,30.39
2018-08-04T20:28:26.295Z,30.33
2018-08-04T20:30:55.908Z,30.01
2018-08-04T20:33:25.229Z,30.56
2018-08-04T20:35:55.016Z,30.56
2018-08-04T20:38:24.615Z,30.47
2018-08-04T20:41:01.574Z,30.54
2018-08-04T20:43:31.057Z,31.28
2018-08-04T20:46:01.472Z,31.79
2018-08-04T20:48:30.636Z,31.77
2018-08-04T20:50:59.520Z,32.90
2018-08-04T20:53:28.488Z,33.09
2018-08-04T20:55:58.159Z,32.69
2018-08-04T20:58:27.709Z,33.26
2018-08-04T21:01:07.782Z,32.69
2018-08-04T21:03:37.065Z,33.07
2018-08-04T21:06:06.713Z,32.97
2018-08-04T21:08:35.769Z,32.87
2018-08-04T21:11:05.532Z,33.21
2018-08-04T21:13:36.996Z,34.31
2018-08-04T21:16:06.160Z,34.14
2018-08-04T21:18:35.195Z,34.02
2018-08-04T21:21:04.346Z,33.76
2018-08-04T21:23:34.878Z,33.76
2018-08-04T21:26:04.274Z,34.75
2018-08-04T21:28:33.297Z,34.59
2018-08-04T21:31:02.261Z,34.32
2018-08-04T21:33:31.371Z,34.57
2018-08-04T21:36:00.735Z,34.52
2018-08-04T21:38:29.753Z,35.12
2018-08-04T21:40:59.979Z,34.70
2018-08-04T21:43:29.341Z,34.41
2018-08-04T21:45:59.258Z,34.30
2018-08-04T21:48:28.488Z,34.27
2018-08-04T21:50:57.491Z,34.75
2018-08-04T21:53:26.612Z,34.90
2018-08-04T21:55:56.038Z,34.71
2018-08-04T21:58:25.057Z,35.00
2018-08-04T22:00:59.060Z,35.04
2018-08-04T22:03:28.697Z,34.62
2018-08-04T22:05:58.356Z,34.91
2018-08-04T22:08:38.232Z,34.93
2018-08-04T22:11:07.277Z,35.19
2018-08-04T22:13:36.551Z,34.85
2018-08-04T22:16:05.734Z,35.26
2018-08-04T22:18:34.562Z,35.21
2018-08-04T22:21:03.555Z,35.46
2018-08-04T22:23:32.547Z,36.21
2018-08-04T22:26:02.207Z,36.53
2018-08-04T22:28:31.213Z,36.19
2018-08-04T22:31:00.319Z,37.08
2018-08-04T22:33:29.622Z,37.18
2018-08-04T22:35:58.726Z,36.43
2018-08-04T22:38:27.692Z,36.61
2018-08-04T22:40:56.371Z,36.18
2018-08-04T22:43:25.714Z,37.10
2018-08-04T22:46:03.032Z,36.81
2018-08-04T22:48:32.275Z,37.51
2018-08-04T22:51:01.443Z,37.06
2018-08-04T22:53:34.208Z,37.40
2018-08-04T22:56:04.140Z,37.89
2018-08-04T22:58:33.456Z,37.55
2018-08-04T23:01:02.390Z,37.35
2018-08-04T23:03:33.869Z,37.42
2018-08-04T23:06:03.954Z,38.25
2018-08-04T23:08:32.886Z,38.65
2018-08-04T23:11:02.500Z,38.40
2018-08-04T23:13:31.338Z,39.10
2018-08-04T23:16:00.281Z,38.90
2018-08-04T23:18:29.458Z,38.55
2018-08-04T23:20:58.424Z,38.51
2018-08-04T23:23:27.547Z,38.87
2018-08-04T23:25:56.390Z,39.08
2018-08-04T23:28:25.664Z,39.14
2018-08-04T23:30:55.761Z,39.06
2018-08-04T23:33:24.524Z,38.70
2018-08-04T23:35:54.557Z,39.71
2018-08-04T23:38:24.245Z,39.79
2018-08-04T23:40:53.179Z,39.20
2018-08-04T23:43:22.244Z,39.53
2018-08-04T23:45:51.327Z,40.09
2018-08-04T23:48:20.324Z,39.01
2018-08-04T23:50:49.397Z,38.81
2018-08-04T23:53:19.109Z,38.52
2018-08-04T23:55:48.398Z,39.03
2018-08-04T23:58:17.567Z,38.61
